createdAt,value
2019-04-25T00:00:40.573Z,45.64
2019-04-25T00:01:39.040Z,45.00
2019-04-25T00:02:40.796Z,46.98
2019-04-25T00:03:40.813Z,49.96
2019-04-25T00:04:39.404Z,46.99
2019-04-25T00:05:39.556Z,79.66
2019-04-25T00:06:39.127Z,45.00
2019-04-25T00:07:42.442Z,45.00
2019-04-25T00:08:39.340Z,45.00
2019-04-25T00:09:39.172Z,45.00
2019-04-25T00:10:39.229Z,45.00
2019-04-25T00:11:39.494Z,45.00
2019-04-25T00:12:39.432Z,45.00
2019-04-25T00:13:39.692Z,45.00
2019-04-25T00:14:39.629Z,45.00
2019-04-25T00:15:39.955Z,45.00
2019-04-25T00:16:39.804Z,45.00
2019-04-25T00:17:41.947Z,45.00
2019-04-25T00:18:40.089Z,45.00
2019-04-25T00:19:39.145Z,47.61
2019-04-25T00:20:39.158Z,45.00
2019-04-25T00:21:40.908Z,45.00
2019-04-25T00:22:39.322Z,45.00
2019-04-25T00:23:39.467Z,45.00
2019-04-25T00:24:39.724Z,45.00
2019-04-25T00:25:41.526Z,45.00
2019-04-25T00:26:40.157Z,45.00
2019-04-25T00:27:41.477Z,45.00
2019-04-25T00:28:39.147Z,45.00
2019-04-25T00:29:40.978Z,45.00
2019-04-25T00:30:40.320Z,45.00
2019-04-25T00:31:39.076Z,45.00
2019-04-25T00:32:41.241Z,45.00
2019-04-25T00:33:39.197Z,45.00
2019-04-25T00:34:40.865Z,45.00
2019-04-25T00:35:39.078Z,45.00
2019-04-25T00:36:40.588Z,45.00
2019-04-25T00:37:39.108Z,45.00
2019-04-25T00:38:39.144Z,45.00
2019-04-25T00:39:39.486Z,45.00
2019-04-25T00:40:39.130Z,45.00
2019-04-25T00:41:39.901Z,45.00
2019-04-25T00:42:39.183Z,45.00
2019-04-25T00:43:39.190Z,45.00
2019-04-25T00:44:39.094Z,45.00
2019-04-25T00:45:39.148Z,45.00
2019-04-25T00:46:39.138Z,45.00
2019-04-25T00:47:39.545Z,45.00
2019-04-25T00:48:42.386Z,76.44
2019-04-25T00:49:39.144Z,45.00
2019-04-25T00:50:39.555Z,45.00
2019-04-25T00:51:39.179Z,45.00
2019-04-25T00:52:39.508Z,45.00
2019-04-25T00:53:39.101Z,45.00
2019-04-25T00:54:41.224Z,45.00
2019-04-25T00:55:39.139Z,45.00
2019-04-25T00:56:39.144Z,45.00
2019-04-25T00:57:39.600Z,45.00
2019-04-25T00:58:40.111Z,45.00
2019-04-25T00:59:39.212Z,45.00
2019-04-25T01:00:39.529Z,46.99
2019-04-25T01:01:39.160Z,53.56
2019-04-25T01:02:39.125Z,45.00
2019-04-25T01:03:39.188Z,45.00
2019-04-25T01:04:39.208Z,47.40
2019-04-25T01:05:39.847Z,60.37
2019-04-25T01:06:39.537Z,64.59
2019-04-25T01:07:39.360Z,54.44
2019-04-25T01:08:41.400Z,45.00
2019-04-25T01:09:39.318Z,47.72
2019-04-25T01:10:39.174Z,45.00
2019-04-25T01:11:39.486Z,46.69
2019-04-25T01:12:39.232Z,45.00
2019-04-25T01:13:39.816Z,80.45
2019-04-25T01:14:41.924Z,47.10
2019-04-25T01:15:39.215Z,45.00
2019-04-25T01:16:39.158Z,45.00
2019-04-25T01:17:39.151Z,45.00
2019-04-25T01:18:39.214Z,45.00
2019-04-25T01:19:39.203Z,45.00
2019-04-25T01:20:39.507Z,45.00
2019-04-25T01:21:40.320Z,45.00
2019-04-25T01:22:39.194Z,45.00
2019-04-25T01:23:39.678Z,45.00
2019-04-25T01:24:39.229Z,45.00
2019-04-25T01:25:42.489Z,45.00
2019-04-25T01:26:39.354Z,45.00
2019-04-25T01:27:39.270Z,45.00
2019-04-25T01:28:40.578Z,45.00
2019-04-25T01:29:39.175Z,45.00
2019-04-25T01:30:39.178Z,45.00
2019-04-25T01:31:39.215Z,45.00
2019-04-25T01:32:39.181Z,60.34
2019-04-25T01:33:39.138Z,45.00
2019-04-25T01:34:40.270Z,45.00
2019-04-25T01:35:39.244Z,45.00
2019-04-25T01:36:39.292Z,46.92
2019-04-25T01:37:40.251Z,90.00
2019-04-25T01:38:39.176Z,59.88
2019-04-25T01:39:39.966Z,53.33
2019-04-25T01:40:39.300Z,49.80
2019-04-25T01:41:40.241Z,45.00
2019-04-25T01:42:39.156Z,45.00
2019-04-25T01:43:39.210Z,45.00
2019-04-25T01:44:39.764Z,45.00
2019-04-25T01:45:39.180Z,50.85
2019-04-25T01:46:40.082Z,45.00
2019-04-25T01:47:39.234Z,48.65
2019-04-25T01:48:39.271Z,45.00
2019-04-25T01:49:39.249Z,45.00
2019-04-25T01:50:39.239Z,45.00
2019-04-25T01:51:39.188Z,45.00
2019-04-25T01:52:39.260Z,45.00
2019-04-25T01:53:39.226Z,45.00
2019-04-25T01:54:39.182Z,51.88
2019-04-25T01:55:50.968Z,45.94
2019-04-25T01:56:39.227Z,45.00
2019-04-25T01:57:39.884Z,45.00
2019-04-25T01:58:39.931Z,45.00
2019-04-25T01:59:39.554Z,45.00
2019-04-25T02:00:39.264Z,45.00
2019-04-25T02:01:39.262Z,45.00
2019-04-25T02:02:43.525Z,45.00
2019-04-25T02:03:39.672Z,45.00
2019-04-25T02:04:39.334Z,45.00
2019-04-25T02:05:39.464Z,45.00
2019-04-25T02:06:39.190Z,45.00
2019-04-25T02:07:39.267Z,45.00
2019-04-25T02:08:39.211Z,45.00
2019-04-25T02:09:39.194Z,45.00
2019-04-25T02:10:40.011Z,45.00
2019-04-25T02:11:39.925Z,45.00
2019-04-25T02:12:40.018Z,45.00
2019-04-25T02:13:39.595Z,45.00
2019-04-25T02:14:39.263Z,45.00
2019-04-25T02:15:40.079Z,45.00
2019-04-25T02:16:39.199Z,45.00
2019-04-25T02:17:39.353Z,45.00
2019-04-25T02:18:39.205Z,45.00
2019-04-25T02:19:39.300Z,45.00
2019-04-25T02:20:39.249Z,45.00
2019-04-25T02:21:39.278Z,45.00
2019-04-25T02:22:39.363Z,45.00
2019-04-25T02:23:39.269Z,45.00
2019-04-25T02:24:43.722Z,45.00
2019-04-25T02:25:39.245Z,50.81
2019-04-25T02:26:39.262Z,45.00
2019-04-25T02:27:39.276Z,45.00
2019-04-25T02:28:39.164Z,45.00
2019-04-25T02:29:39.242Z,45.00
2019-04-25T02:30:41.823Z,46.42
2019-04-25T02:31:39.431Z,47.80
2019-04-25T02:32:40.523Z,51.11
2019-04-25T02:33:40.152Z,45.00
2019-04-25T02:34:39.187Z,54.05
2019-04-25T02:35:43.152Z,45.00
2019-04-25T02:36:44.291Z,45.00
2019-04-25T02:37:39.892Z,45.00
2019-04-25T02:38:40.799Z,45.00
2019-04-25T02:39:39.827Z,53.94
2019-04-25T02:40:40.934Z,46.12
2019-04-25T02:41:40.884Z,50.21
2019-04-25T02:42:39.482Z,58.44
2019-04-25T02:43:39.230Z,66.21
2019-04-25T02:44:40.114Z,45.00
2019-04-25T02:45:39.230Z,48.68
2019-04-25T02:46:40.379Z,54.70
2019-04-25T02:47:39.380Z,55.11
2019-04-25T02:48:39.259Z,46.13
2019-04-25T02:49:40.110Z,52.40
2019-04-25T02:50:39.296Z,45.00
2019-04-25T02:51:39.915Z,45.00
2019-04-25T02:52:39.497Z,45.00
2019-04-25T02:53:40.018Z,69.38
2019-04-25T02:54:39.273Z,49.48
2019-04-25T02:55:39.237Z,150.10
2019-04-25T02:56:39.641Z,85.29
2019-04-25T02:57:39.604Z,81.38
2019-04-25T02:58:39.797Z,45.00
2019-04-25T02:59:39.300Z,56.26
2019-04-25T03:00:54.915Z,50.95
2019-04-25T03:01:39.240Z,53.96
2019-04-25T03:02:39.658Z,60.76
2019-04-25T03:03:39.267Z,51.65
2019-04-25T03:04:39.606Z,49.83
2019-04-25T03:05:39.897Z,58.01
2019-04-25T03:06:39.733Z,51.02
2019-04-25T03:07:39.633Z,45.00
2019-04-25T03:08:39.334Z,48.85
2019-04-25T03:09:39.632Z,66.26
2019-04-25T03:10:39.280Z,59.96
2019-04-25T03:11:39.333Z,56.70
2019-04-25T03:12:40.114Z,55.53
2019-04-25T03:13:39.308Z,112.24
2019-04-25T03:14:39.249Z,51.85
2019-04-25T03:15:40.012Z,67.98
2019-04-25T03:16:39.271Z,52.10
2019-04-25T03:17:39.610Z,45.00
2019-04-25T03:18:39.348Z,45.00
2019-04-25T03:19:39.931Z,45.00
2019-04-25T03:20:39.578Z,46.72
2019-04-25T03:21:39.622Z,47.04
2019-04-25T03:22:39.280Z,60.09
2019-04-25T03:23:42.552Z,11.30
2019-04-25T03:24:40.247Z,57.05
2019-04-25T03:25:39.475Z,49.52
2019-04-25T03:26:40.704Z,58.84
2019-04-25T03:27:40.411Z,45.00
2019-04-25T03:28:39.329Z,45.00
2019-04-25T03:29:39.301Z,45.00
2019-04-25T03:30:39.586Z,66.69
2019-04-25T03:31:39.636Z,52.28
2019-04-25T03:32:39.276Z,218.67
2019-04-25T03:33:39.402Z,224.74
2019-04-25T03:34:39.435Z,58.40
2019-04-25T03:35:39.231Z,45.00
2019-04-25T03:36:39.665Z,73.52
2019-04-25T03:37:39.295Z,45.92
2019-04-25T03:38:39.288Z,75.19
2019-04-25T03:39:39.671Z,53.72
2019-04-25T03:40:39.295Z,45.57
2019-04-25T03:41:39.629Z,53.18
2019-04-25T03:42:39.327Z,45.35
2019-04-25T03:43:39.339Z,48.15
2019-04-25T03:44:39.373Z,45.00
2019-04-25T03:45:39.328Z,50.79
2019-04-25T03:46:39.379Z,49.48
2019-04-25T03:47:39.277Z,56.03
2019-04-25T03:48:40.077Z,54.90
2019-04-25T03:49:39.662Z,67.30
2019-04-25T03:50:39.275Z,45.00
2019-04-25T03:51:39.569Z,52.16
2019-04-25T03:52:39.673Z,147.75
2019-04-25T03:53:39.287Z,61.10
2019-04-25T03:54:39.413Z,102.04
2019-04-25T03:55:39.517Z,48.91
2019-04-25T03:56:49.944Z,65.62
2019-04-25T03:57:39.713Z,59.12
2019-04-25T03:58:39.337Z,56.51
2019-04-25T03:59:39.319Z,69.28
2019-04-25T04:00:39.252Z,130.17
2019-04-25T04:01:39.371Z,67.09
2019-04-25T04:02:39.285Z,70.16
2019-04-25T04:03:39.358Z,89.89
2019-04-25T04:04:39.361Z,94.13
2019-04-25T04:05:39.289Z,56.25
2019-04-25T04:06:39.271Z,87.70
2019-04-25T04:07:39.347Z,45.00
2019-04-25T04:08:39.299Z,51.00
2019-04-25T04:09:39.346Z,45.00
2019-04-25T04:10:39.367Z,71.20
2019-04-25T04:11:39.323Z,58.00
2019-04-25T04:12:39.635Z,60.63
2019-04-25T04:13:39.367Z,84.11
2019-04-25T04:14:39.333Z,45.00
2019-04-25T04:15:39.314Z,51.42
2019-04-25T04:16:39.351Z,46.96
2019-04-25T04:17:40.031Z,46.75
2019-04-25T04:18:39.293Z,62.78
2019-04-25T04:19:39.431Z,62.71
2019-04-25T04:20:39.333Z,45.00
2019-04-25T04:21:39.277Z,45.00
2019-04-25T04:22:39.397Z,46.68
2019-04-25T04:23:39.371Z,45.95
2019-04-25T04:24:39.467Z,52.75
2019-04-25T04:25:40.101Z,69.90
2019-04-25T04:26:39.358Z,100.63
2019-04-25T04:27:40.269Z,86.71
2019-04-25T04:28:39.421Z,90.58
2019-04-25T04:29:39.427Z,69.22
2019-04-25T04:30:39.677Z,47.30
2019-04-25T04:31:39.369Z,61.85
2019-04-25T04:32:40.048Z,176.56
2019-04-25T04:33:39.823Z,107.33
2019-04-25T04:34:39.429Z,153.36
2019-04-25T04:35:39.349Z,79.59
2019-04-25T04:36:39.655Z,45.00
2019-04-25T04:37:39.387Z,47.12
2019-04-25T04:38:39.476Z,60.01
2019-04-25T04:39:39.350Z,87.08
2019-04-25T04:40:39.370Z,53.20
2019-04-25T04:41:39.428Z,75.27
2019-04-25T04:42:39.308Z,71.02
2019-04-25T04:43:40.174Z,77.62
2019-04-25T04:44:39.843Z,71.94
2019-04-25T04:45:39.947Z,50.22
2019-04-25T04:46:39.393Z,46.56
2019-04-25T04:47:39.374Z,99.66
2019-04-25T04:48:39.665Z,41.91
2019-04-25T04:49:39.763Z,60.67
2019-04-25T04:50:39.711Z,69.31
2019-04-25T04:51:39.699Z,48.95
2019-04-25T04:52:39.443Z,50.10
2019-04-25T04:53:40.099Z,49.54
2019-04-25T04:54:39.385Z,47.82
2019-04-25T04:55:39.425Z,49.66
2019-04-25T04:56:39.421Z,55.03
2019-04-25T04:57:39.386Z,49.45
2019-04-25T04:58:40.375Z,52.51
2019-04-25T04:59:40.029Z,52.07
2019-04-25T05:00:40.685Z,47.83
2019-04-25T05:01:39.321Z,51.70
2019-04-25T05:02:39.737Z,68.97
2019-04-25T05:03:39.463Z,72.66
2019-04-25T05:04:41.127Z,45.16
2019-04-25T05:05:39.390Z,45.00
2019-04-25T05:06:39.927Z,47.12
2019-04-25T05:07:39.373Z,54.57
2019-04-25T05:08:40.251Z,45.00
2019-04-25T05:09:39.576Z,45.00
2019-04-25T05:10:39.987Z,45.00
2019-04-25T05:11:39.414Z,45.00
2019-04-25T05:12:39.405Z,223.11
2019-04-25T05:13:39.679Z,45.00
2019-04-25T05:14:39.563Z,45.00
2019-04-25T05:15:39.370Z,41.38
2019-04-25T05:16:39.692Z,45.00
2019-04-25T05:17:39.434Z,45.00
2019-04-25T05:18:40.053Z,45.00
2019-04-25T05:19:39.473Z,45.00
2019-04-25T05:20:40.715Z,45.00
2019-04-25T05:21:39.457Z,45.00
2019-04-25T05:22:39.450Z,45.00
2019-04-25T05:23:40.467Z,45.00
2019-04-25T05:24:40.298Z,46.82
2019-04-25T05:25:39.784Z,55.33
2019-04-25T05:26:39.459Z,45.00
2019-04-25T05:27:56.783Z,124.07
2019-04-25T05:28:39.370Z,45.00
2019-04-25T05:29:39.326Z,54.62
2019-04-25T05:30:39.424Z,45.00
2019-04-25T05:31:39.626Z,45.00
2019-04-25T05:32:39.564Z,45.00
2019-04-25T05:33:39.391Z,45.00
2019-04-25T05:34:39.810Z,45.00
2019-04-25T05:35:39.451Z,45.00
2019-04-25T05:36:40.251Z,45.00
2019-04-25T05:37:40.537Z,45.00
2019-04-25T05:38:39.793Z,63.94
2019-04-25T05:39:39.772Z,155.52
2019-04-25T05:40:39.736Z,198.39
2019-04-25T05:41:39.481Z,107.57
2019-04-25T05:42:39.802Z,55.50
2019-04-25T05:43:39.751Z,45.00
2019-04-25T05:44:39.722Z,45.00
2019-04-25T05:45:39.444Z,45.00
2019-04-25T05:46:39.384Z,49.92
2019-04-25T05:47:39.396Z,45.00
2019-04-25T05:48:39.423Z,45.00
2019-04-25T05:49:39.422Z,48.71
2019-04-25T05:50:39.474Z,153.04
2019-04-25T05:51:39.436Z,45.00
2019-04-25T05:52:39.450Z,45.00
2019-04-25T05:53:39.364Z,45.00
2019-04-25T05:54:40.176Z,45.00
2019-04-25T05:55:39.638Z,45.00
2019-04-25T05:56:41.346Z,45.00
2019-04-25T05:57:47.777Z,52.02
2019-04-25T05:58:40.255Z,45.00
2019-04-25T05:59:39.393Z,49.26
2019-04-25T06:00:39.454Z,63.03
2019-04-25T06:01:39.756Z,45.42
2019-04-25T06:02:39.390Z,45.00
2019-04-25T06:03:40.205Z,45.00
2019-04-25T06:04:40.380Z,45.00
2019-04-25T06:05:39.388Z,45.00
2019-04-25T06:06:40.170Z,47.62
2019-04-25T06:07:39.454Z,45.61
2019-04-25T06:08:39.956Z,45.00
2019-04-25T06:09:39.587Z,45.00
2019-04-25T06:10:40.262Z,45.00
2019-04-25T06:11:39.422Z,45.00
2019-04-25T06:12:40.334Z,49.75
2019-04-25T06:13:39.792Z,67.21
2019-04-25T06:14:39.423Z,64.35
2019-04-25T06:15:39.794Z,144.46
2019-04-25T06:16:39.528Z,45.00
2019-04-25T06:17:40.014Z,45.00
2019-04-25T06:18:39.452Z,45.00
2019-04-25T06:19:39.782Z,45.00
2019-04-25T06:20:39.954Z,55.80
2019-04-25T06:21:39.538Z,76.04
2019-04-25T06:22:40.482Z,102.20
2019-04-25T06:23:39.618Z,45.00
2019-04-25T06:24:39.833Z,77.88
2019-04-25T06:25:40.034Z,45.00
2019-04-25T06:26:40.081Z,45.00
2019-04-25T06:27:39.872Z,73.22
2019-04-25T06:28:49.454Z,135.00
2019-04-25T06:29:39.472Z,150.71
2019-04-25T06:30:39.490Z,180.00
2019-04-25T06:31:39.481Z,184.46
2019-04-25T06:32:39.776Z,114.42
2019-04-25T06:33:39.767Z,136.42
2019-04-25T06:34:40.422Z,165.64
2019-04-25T06:35:39.422Z,161.79
2019-04-25T06:36:39.726Z,45.00
2019-04-25T06:37:39.469Z,113.25
2019-04-25T06:38:39.468Z,145.48
2019-04-25T06:39:39.420Z,150.96
2019-04-25T06:40:39.826Z,180.00
2019-04-25T06:41:39.633Z,90.75
2019-04-25T06:42:39.443Z,187.26
2019-04-25T06:43:42.238Z,191.37
2019-04-25T06:44:39.439Z,166.03
2019-04-25T06:45:40.371Z,180.00
2019-04-25T06:46:40.192Z,166.39
2019-04-25T06:47:39.442Z,154.36
2019-04-25T06:48:40.272Z,130.75
2019-04-25T06:49:39.538Z,54.00
2019-04-25T06:50:40.110Z,170.87
2019-04-25T06:51:39.674Z,125.97
2019-04-25T06:52:39.462Z,153.20
2019-04-25T06:53:39.720Z,119.14
2019-04-25T06:54:39.796Z,117.54
2019-04-25T06:55:39.525Z,230.80
2019-04-25T06:56:40.460Z,107.19
2019-04-25T06:57:39.937Z,176.65
2019-04-25T06:58:39.487Z,130.24
2019-04-25T06:59:41.374Z,113.34
2019-04-25T07:00:42.617Z,135.00
2019-04-25T07:01:39.522Z,163.04
2019-04-25T07:02:39.508Z,189.86
2019-04-25T07:03:40.078Z,63.63
2019-04-25T07:04:39.509Z,173.14
2019-04-25T07:05:40.702Z,181.52
2019-04-25T07:06:39.482Z,121.73
2019-04-25T07:07:39.563Z,152.64
2019-04-25T07:08:39.496Z,86.52
2019-04-25T07:09:39.781Z,114.26
2019-04-25T07:10:39.855Z,158.49
2019-04-25T07:11:40.526Z,133.30
2019-04-25T07:12:39.805Z,152.99
2019-04-25T07:13:39.539Z,36.40
2019-04-25T07:14:39.498Z,199.10
2019-04-25T07:15:40.490Z,33.19
2019-04-25T07:16:39.422Z,240.61
2019-04-25T07:17:40.055Z,161.94
2019-04-25T07:18:39.947Z,127.51
2019-04-25T07:19:39.527Z,129.18
2019-04-25T07:20:39.623Z,126.03
2019-04-25T07:21:39.675Z,134.05
2019-04-25T07:22:39.689Z,119.35
2019-04-25T07:23:40.385Z,24.03
2019-04-25T07:24:39.520Z,184.05
2019-04-25T07:25:39.451Z,143.18
2019-04-25T07:26:39.801Z,158.20
2019-04-25T07:27:39.505Z,156.74
2019-04-25T07:28:39.494Z,173.48
2019-04-25T07:29:39.524Z,114.30
2019-04-25T07:30:51.479Z,88.32
2019-04-25T07:31:40.242Z,45.50
2019-04-25T07:32:39.871Z,171.05
2019-04-25T07:33:40.531Z,163.61
2019-04-25T07:34:39.474Z,157.39
2019-04-25T07:35:39.533Z,172.69
2019-04-25T07:36:39.727Z,111.66
2019-04-25T07:37:41.764Z,130.63
2019-04-25T07:38:40.221Z,90.75
2019-04-25T07:39:40.245Z,144.91
2019-04-25T07:40:39.778Z,148.01
2019-04-25T07:41:39.873Z,145.73
2019-04-25T07:42:41.588Z,148.41
2019-04-25T07:43:40.908Z,165.28
2019-04-25T07:44:49.428Z,170.43
2019-04-25T07:45:40.252Z,143.64
2019-04-25T07:46:40.720Z,141.88
2019-04-25T07:47:40.151Z,99.80
2019-04-25T07:48:39.737Z,86.34
2019-04-25T07:49:43.272Z,151.32
2019-04-25T07:50:40.648Z,169.23
2019-04-25T07:51:39.531Z,146.09
2019-04-25T07:52:39.937Z,103.17
2019-04-25T07:53:39.992Z,156.44
2019-04-25T07:54:39.521Z,94.02
2019-04-25T07:55:39.503Z,144.20
2019-04-25T07:56:39.566Z,126.97
2019-04-25T07:57:39.927Z,135.98
2019-04-25T07:58:49.155Z,150.00
2019-04-25T07:59:39.703Z,177.23
2019-04-25T08:00:39.557Z,184.17
2019-04-25T08:01:39.496Z,72.02
2019-04-25T08:02:40.315Z,145.48
2019-04-25T08:03:39.599Z,134.22
2019-04-25T08:04:39.835Z,99.29
2019-04-25T08:05:39.908Z,136.40
2019-04-25T08:06:39.557Z,143.87
2019-04-25T08:07:39.679Z,153.20
2019-04-25T08:08:39.897Z,117.34
2019-04-25T08:09:39.813Z,126.88
2019-04-25T08:10:39.715Z,143.06
2019-04-25T08:11:39.601Z,139.22
2019-04-25T08:12:39.563Z,155.32
2019-04-25T08:13:39.898Z,110.44
2019-04-25T08:14:40.039Z,133.89
2019-04-25T08:15:39.585Z,138.28
2019-04-25T08:16:40.141Z,127.16
2019-04-25T08:17:39.992Z,118.01
2019-04-25T08:18:39.547Z,129.45
2019-04-25T08:19:39.583Z,131.61
2019-04-25T08:20:40.361Z,136.74
2019-04-25T08:21:39.715Z,154.40
2019-04-25T08:22:52.927Z,85.91
2019-04-25T08:23:39.609Z,140.43
2019-04-25T08:24:39.589Z,120.22
2019-04-25T08:25:40.571Z,130.84
2019-04-25T08:26:39.626Z,135.79
2019-04-25T08:27:39.770Z,104.16
2019-04-25T08:28:51.971Z,141.22
2019-04-25T08:29:41.171Z,128.55
2019-04-25T08:30:39.915Z,159.39
2019-04-25T08:31:39.799Z,82.47
2019-04-25T08:32:39.627Z,229.51
2019-04-25T08:33:39.941Z,6.95
2019-04-25T08:34:40.360Z,175.11
2019-04-25T08:35:39.854Z,150.95
2019-04-25T08:36:40.051Z,156.07
2019-04-25T08:37:39.599Z,137.29
2019-04-25T08:38:40.318Z,135.02
2019-04-25T08:39:40.562Z,161.69
2019-04-25T08:40:40.423Z,153.00
2019-04-25T08:41:39.517Z,167.52
2019-04-25T08:42:39.925Z,175.31
2019-04-25T08:43:40.441Z,23.15
2019-04-25T08:44:39.551Z,140.24
2019-04-25T08:45:39.792Z,121.01
2019-04-25T08:46:39.602Z,137.91
2019-04-25T08:47:39.582Z,59.43
2019-04-25T08:48:40.247Z,74.32
2019-04-25T08:49:40.212Z,18.16
2019-04-25T08:50:40.160Z,131.45
2019-04-25T08:51:40.122Z,112.70
2019-04-25T08:52:40.146Z,149.11
2019-04-25T08:53:39.641Z,90.41
2019-04-25T08:54:44.361Z,89.21
2019-04-25T08:55:39.573Z,56.56
2019-04-25T08:56:39.884Z,95.69
2019-04-25T08:57:40.391Z,64.05
2019-04-25T08:58:41.056Z,66.99
2019-04-25T08:59:44.256Z,99.05
2019-04-25T09:00:40.447Z,92.78
2019-04-25T09:01:41.669Z,170.07
2019-04-25T09:02:40.727Z,121.14
2019-04-25T09:03:40.164Z,50.17
2019-04-25T09:04:40.210Z,114.55
2019-04-25T09:05:40.388Z,105.88
2019-04-25T09:06:40.413Z,81.48
2019-04-25T09:07:40.245Z,84.71
2019-04-25T09:08:39.570Z,114.78
2019-04-25T09:09:39.641Z,145.83
2019-04-25T09:10:40.140Z,76.40
2019-04-25T09:11:40.106Z,62.86
2019-04-25T09:12:40.097Z,56.82
2019-04-25T09:13:39.633Z,55.81
2019-04-25T09:14:39.816Z,57.33
2019-04-25T09:15:39.875Z,97.42
2019-04-25T09:16:39.881Z,139.12
2019-04-25T09:17:40.218Z,160.85
2019-04-25T09:18:40.257Z,152.32
2019-04-25T09:19:39.952Z,151.92
2019-04-25T09:20:41.833Z,155.77
2019-04-25T09:21:42.469Z,102.95
2019-04-25T09:22:39.952Z,109.53
2019-04-25T09:23:40.381Z,147.62
2019-04-25T09:24:40.143Z,121.12
2019-04-25T09:25:40.645Z,136.26
2019-04-25T09:26:40.120Z,140.47
2019-04-25T09:27:40.635Z,163.31
2019-04-25T09:28:40.823Z,134.64
2019-04-25T09:29:39.637Z,72.91
2019-04-25T09:30:40.218Z,147.76
2019-04-25T09:31:40.200Z,162.19
2019-04-25T09:32:40.665Z,79.85
2019-04-25T09:33:39.939Z,92.19
2019-04-25T09:34:39.688Z,65.27
2019-04-25T09:35:39.640Z,96.42
2019-04-25T09:36:39.928Z,63.21
2019-04-25T09:37:39.649Z,103.63
2019-04-25T09:38:40.940Z,100.85
2019-04-25T09:39:39.761Z,55.94
2019-04-25T09:40:39.831Z,87.55
2019-04-25T09:41:39.962Z,95.18
2019-04-25T09:42:39.573Z,85.32
2019-04-25T09:43:40.338Z,70.50
2019-04-25T09:44:40.003Z,16.69
2019-04-25T09:45:40.223Z,156.02
2019-04-25T09:46:39.695Z,315.19
2019-04-25T09:47:39.647Z,122.01
2019-04-25T09:48:40.349Z,75.78
2019-04-25T09:49:39.806Z,150.65
2019-04-25T09:50:39.769Z,123.34
2019-04-25T09:51:39.770Z,145.66
2019-04-25T09:52:40.200Z,143.41
2019-04-25T09:53:44.733Z,130.39
2019-04-25T09:54:39.919Z,156.53
2019-04-25T09:55:39.781Z,170.99
2019-04-25T09:56:40.516Z,172.46
2019-04-25T09:57:39.633Z,187.33
2019-04-25T09:58:40.070Z,140.70
2019-04-25T09:59:39.645Z,153.44
2019-04-25T10:00:40.393Z,145.91
2019-04-25T10:01:40.190Z,130.44
2019-04-25T10:02:40.270Z,82.62
2019-04-25T10:03:39.635Z,150.30
2019-04-25T10:04:41.279Z,147.58
2019-04-25T10:05:40.410Z,134.69
2019-04-25T10:06:40.685Z,70.10
2019-04-25T10:07:40.551Z,136.14
2019-04-25T10:08:39.667Z,139.52
2019-04-25T10:09:40.701Z,156.81
2019-04-25T10:10:40.514Z,183.32
2019-04-25T10:11:39.925Z,156.94
2019-04-25T10:12:39.682Z,86.91
2019-04-25T10:13:40.086Z,126.18
2019-04-25T10:14:39.669Z,148.89
2019-04-25T10:15:39.977Z,133.58
2019-04-25T10:16:40.249Z,149.86
2019-04-25T10:17:41.144Z,124.98
2019-04-25T10:18:39.650Z,113.86
2019-04-25T10:19:39.708Z,110.97
2019-04-25T10:20:39.868Z,111.49
2019-04-25T10:21:39.631Z,125.52
2019-04-25T10:22:40.347Z,128.77
2019-04-25T10:23:39.906Z,268.29
2019-04-25T10:24:40.078Z,137.08
2019-04-25T10:25:40.440Z,184.94
2019-04-25T10:26:40.032Z,172.60
2019-04-25T10:27:40.693Z,156.48
2019-04-25T10:28:39.812Z,118.56
2019-04-25T10:29:47.294Z,125.26
2019-04-25T10:30:41.014Z,147.37
2019-04-25T10:31:40.035Z,154.06
2019-04-25T10:32:40.037Z,206.16
2019-04-25T10:33:40.056Z,211.76
2019-04-25T10:34:40.317Z,100.81
2019-04-25T10:35:47.918Z,165.28
2019-04-25T10:36:41.917Z,151.97
2019-04-25T10:37:39.952Z,162.71
2019-04-25T10:38:40.342Z,129.10
2019-04-25T10:39:40.104Z,205.39
2019-04-25T10:40:40.564Z,179.00
2019-04-25T10:41:41.221Z,141.69
2019-04-25T10:42:40.654Z,86.81
2019-04-25T10:43:40.456Z,117.20
2019-04-25T10:44:40.161Z,72.00
2019-04-25T10:45:40.705Z,122.31
2019-04-25T10:46:40.191Z,69.57
2019-04-25T10:47:40.189Z,185.80
2019-04-25T10:48:40.070Z,129.75
2019-04-25T10:49:40.580Z,161.31
2019-04-25T10:50:40.172Z,146.44
2019-04-25T10:51:40.837Z,103.61
2019-04-25T10:52:40.001Z,109.38
2019-04-25T10:53:39.836Z,110.61
2019-04-25T10:54:39.850Z,172.16
2019-04-25T10:55:40.373Z,121.09
2019-04-25T10:56:41.656Z,102.26
2019-04-25T10:57:39.670Z,118.69
2019-04-25T10:58:40.175Z,103.81
2019-04-25T10:59:54.434Z,121.80
2019-04-25T11:00:40.711Z,129.73
2019-04-25T11:01:40.283Z,120.64
2019-04-25T11:02:40.977Z,105.68
2019-04-25T11:03:41.226Z,155.51
2019-04-25T11:04:40.620Z,141.40
2019-04-25T11:05:40.537Z,171.87
2019-04-25T11:06:40.852Z,179.43
2019-04-25T11:07:39.764Z,149.07
2019-04-25T11:08:40.456Z,144.61
2019-04-25T11:09:40.635Z,161.59
2019-04-25T11:10:40.585Z,209.09
2019-04-25T11:11:40.735Z,158.89
2019-04-25T11:12:40.043Z,128.28
2019-04-25T11:13:39.677Z,148.12
2019-04-25T11:14:40.002Z,201.80
2019-04-25T11:15:39.762Z,162.13
2019-04-25T11:16:39.798Z,179.73
2019-04-25T11:17:40.108Z,160.83
2019-04-25T11:18:39.728Z,144.23
2019-04-25T11:19:41.002Z,126.24
2019-04-25T11:20:41.046Z,153.80
2019-04-25T11:21:41.269Z,120.26
2019-04-25T11:22:39.704Z,166.25
2019-04-25T11:23:41.279Z,136.13
2019-04-25T11:24:40.077Z,145.63
2019-04-25T11:25:40.619Z,158.36
2019-04-25T11:26:40.570Z,112.36
2019-04-25T11:27:39.973Z,176.29
2019-04-25T11:28:40.024Z,100.41
2019-04-25T11:29:39.971Z,155.77
2019-04-25T11:30:39.781Z,128.57
2019-04-25T11:31:39.740Z,99.32
2019-04-25T11:32:39.785Z,142.64
2019-04-25T11:33:39.744Z,197.45
2019-04-25T11:34:39.696Z,210.30
2019-04-25T11:35:41.197Z,47.27
2019-04-25T11:36:40.141Z,175.29
2019-04-25T11:37:40.078Z,113.40
2019-04-25T11:38:40.122Z,189.35
2019-04-25T11:39:39.764Z,150.08
2019-04-25T11:40:39.740Z,140.74
2019-04-25T11:41:40.154Z,137.18
2019-04-25T11:42:40.110Z,132.23
2019-04-25T11:43:40.571Z,143.08
2019-04-25T11:44:39.856Z,154.36
2019-04-25T11:45:42.889Z,114.90
2019-04-25T11:46:39.784Z,141.00
2019-04-25T11:47:40.144Z,164.84
2019-04-25T11:48:39.755Z,115.31
2019-04-25T11:49:39.823Z,146.35
2019-04-25T11:50:40.876Z,114.99
2019-04-25T11:51:39.794Z,148.82
2019-04-25T11:52:40.240Z,100.73
2019-04-25T11:53:40.150Z,129.46
2019-04-25T11:54:39.816Z,61.45
2019-04-25T11:55:39.979Z,90.03
2019-04-25T11:56:39.832Z,96.30
2019-04-25T11:57:40.151Z,351.92
2019-04-25T11:58:39.767Z,145.41
2019-04-25T11:59:40.196Z,112.19
2019-04-25T12:00:39.820Z,157.77
2019-04-25T12:01:39.769Z,65.16
2019-04-25T12:02:40.404Z,142.41
2019-04-25T12:03:39.823Z,117.17
2019-04-25T12:04:40.007Z,175.25
2019-04-25T12:05:39.941Z,186.93
2019-04-25T12:06:40.851Z,162.25
2019-04-25T12:07:39.764Z,174.26
2019-04-25T12:08:39.876Z,110.69
2019-04-25T12:09:39.847Z,169.29
2019-04-25T12:10:40.146Z,166.40
2019-04-25T12:11:40.927Z,172.81
2019-04-25T12:12:39.904Z,113.84
2019-04-25T12:13:40.323Z,81.50
2019-04-25T12:14:40.198Z,155.58
2019-04-25T12:15:39.813Z,156.86
2019-04-25T12:16:40.619Z,165.66
2019-04-25T12:17:40.185Z,143.63
2019-04-25T12:18:39.821Z,141.68
2019-04-25T12:19:39.865Z,153.38
2019-04-25T12:20:40.575Z,165.46
2019-04-25T12:21:39.827Z,177.37
2019-04-25T12:22:40.294Z,178.14
2019-04-25T12:23:39.895Z,166.38
2019-04-25T12:24:39.891Z,148.83
2019-04-25T12:25:40.068Z,183.44
2019-04-25T12:26:40.123Z,139.21
2019-04-25T12:27:40.294Z,171.86
2019-04-25T12:28:40.153Z,168.15
2019-04-25T12:29:39.807Z,156.37
2019-04-25T12:30:40.312Z,157.65
2019-04-25T12:31:39.831Z,156.00
2019-04-25T12:32:40.835Z,132.68
2019-04-25T12:33:39.863Z,164.15
2019-04-25T12:34:40.463Z,146.51
2019-04-25T12:35:43.744Z,95.43
2019-04-25T12:36:39.857Z,151.03
2019-04-25T12:37:40.173Z,130.07
2019-04-25T12:38:40.145Z,178.87
2019-04-25T12:39:39.860Z,156.94
2019-04-25T12:40:40.473Z,154.58
2019-04-25T12:41:40.040Z,136.43
2019-04-25T12:42:40.237Z,221.04